createdAt,value
2018-03-04T00:03:50.415Z,74.97
2018-03-04T00:13:52.227Z,68.37
2018-03-04T00:23:53.769Z,72.57
2018-03-04T00:33:55.311Z,72.83
2018-03-04T00:43:56.841Z,70.17
2018-03-04T00:53:59.104Z,68.60
2018-03-04T01:04:00.806Z,70.17
2018-03-04T01:14:02.373Z,69.03
2018-03-04T01:24:04.705Z,65.40
2018-03-04T01:34:06.276Z,68.57
2018-03-04T01:44:07.857Z,72.30
2018-03-04T01:54:09.357Z,68.50
2018-03-04T02:04:10.909Z,67.33
2018-03-04T02:14:12.423Z,70.83
2018-03-04T02:24:13.977Z,71.90
2018-03-04T02:34:15.508Z,71.40
2018-03-04T02:44:17.038Z,70.20
2018-03-04T02:54:18.592Z,72.07
2018-03-04T03:04:20.932Z,66.00
2018-03-04T03:14:22.497Z,67.67
2018-03-04T03:24:24.805Z,67.87
2018-03-04T03:34:26.336Z,64.17
2018-03-04T03:44:27.863Z,69.47
2018-03-04T03:54:29.447Z,68.60
2018-03-04T04:04:30.970Z,63.97
2018-03-04T04:14:32.501Z,74.10
2018-03-04T04:24:34.014Z,74.70
2018-03-04T04:34:35.509Z,72.37
2018-03-04T04:44:37.200Z,72.97
2018-03-04T04:54:38.759Z,75.70
2018-03-04T05:04:40.277Z,77.23
2018-03-04T05:14:41.812Z,73.90
2018-03-04T05:24:44.136Z,72.03
2018-03-04T05:34:46.483Z,64.90
2018-03-04T05:44:48.022Z,73.33
2018-03-04T05:54:49.601Z,73.20
2018-03-04T06:04:51.980Z,67.30
2018-03-04T06:14:54.238Z,72.83
2018-03-04T06:24:55.738Z,72.83
2018-03-04T06:34:57.274Z,71.00
2018-03-04T06:44:58.791Z,75.27
2018-03-04T06:55:00.341Z,74.30
2018-03-04T07:05:01.916Z,75.13
2018-03-04T07:15:03.479Z,78.57
2018-03-04T07:25:05.753Z,83.07
2018-03-04T07:35:07.649Z,81.20
2018-03-04T07:45:09.163Z,74.37
2018-03-04T07:55:10.877Z,77.80
2018-03-04T08:05:12.433Z,82.50
2018-03-04T08:15:14.010Z,75.57
2018-03-04T08:25:31.626Z,78.13
2018-03-04T08:35:33.108Z,80.73
2018-03-04T08:45:34.723Z,77.80
2018-03-04T08:55:36.332Z,73.90
2018-03-04T09:05:37.877Z,74.63
2018-03-04T09:15:39.405Z,81.30
2018-03-04T09:25:41.147Z,76.23
2018-03-04T09:35:42.717Z,77.57
2018-03-04T09:45:44.317Z,78.53
2018-03-04T09:55:45.926Z,78.27
2018-03-04T10:05:47.580Z,77.03
2018-03-04T10:15:49.102Z,73.10
2018-03-04T10:25:51.364Z,76.50
2018-03-04T10:35:52.912Z,62.50
2018-03-04T10:45:55.221Z,73.03
2018-03-04T10:55:56.750Z,75.80
2018-03-04T11:05:58.326Z,81.63
2018-03-04T11:16:00.801Z,77.43
2018-03-04T11:26:02.378Z,72.60
2018-03-04T11:36:03.970Z,68.43
2018-03-04T11:46:05.705Z,71.13
2018-03-04T11:56:07.225Z,71.37
2018-03-04T12:06:08.725Z,68.80
2018-03-04T12:16:10.272Z,62.57
2018-03-04T12:26:11.912Z,63.17
2018-03-04T12:36:13.476Z,62.93
2018-03-04T12:46:14.955Z,66.17
2018-03-04T12:56:17.430Z,59.30
2018-03-04T13:06:18.961Z,63.10
2018-03-04T13:16:20.542Z,59.13
2018-03-04T13:26:22.086Z,53.50
2018-03-04T13:36:23.754Z,55.47
2018-03-04T13:46:25.395Z,52.87
2018-03-04T13:56:27.109Z,50.10
2018-03-04T14:06:28.661Z,47.90
2018-03-04T14:16:30.825Z,48.77
2018-03-04T14:26:33.080Z,46.27
2018-03-04T14:36:34.669Z,46.70
2018-03-04T14:46:36.251Z,45.73
2018-03-04T14:56:37.740Z,41.20
2018-03-04T15:06:39.315Z,39.67
2018-03-04T15:16:41.578Z,41.50
2018-03-04T15:26:43.097Z,39.37
2018-03-04T15:36:44.663Z,40.37
2018-03-04T15:46:46.246Z,38.80
2018-03-04T15:56:47.919Z,33.27
2018-03-04T16:06:50.091Z,33.57
2018-03-04T16:16:51.565Z,32.77
2018-03-04T16:26:53.227Z,39.53
2018-03-04T16:36:54.887Z,28.40
2018-03-04T16:46:56.373Z,29.07
2018-03-04T16:56:57.970Z,29.40
2018-03-04T17:06:59.532Z,34.83
2018-03-04T17:17:01.054Z,31.00
2018-03-04T17:27:03.358Z,35.30
2018-03-04T17:37:04.943Z,40.90
2018-03-04T17:47:06.786Z,42.17
2018-03-04T17:57:09.143Z,42.70
2018-03-04T18:07:10.782Z,45.33
2018-03-04T18:17:12.270Z,47.30
2018-03-04T18:27:13.845Z,44.37
2018-03-04T18:37:15.326Z,46.07
2018-03-04T18:47:16.938Z,43.10
2018-03-04T18:57:18.506Z,43.83
2018-03-04T19:07:20.298Z,45.27
2018-03-04T19:17:22.610Z,41.70
2018-03-04T19:27:24.179Z,40.80
2018-03-04T19:37:25.759Z,34.57
2018-03-04T19:47:27.410Z,33.10
2018-03-04T19:57:28.897Z,36.40
2018-03-04T20:07:30.421Z,36.17
2018-03-04T20:17:31.876Z,33.30
2018-03-04T20:27:33.453Z,32.83
2018-03-04T20:37:35.006Z,30.87
2018-03-04T20:47:36.577Z,27.80
2018-03-04T20:57:38.125Z,26.93
2018-03-04T21:07:40.406Z,27.17
2018-03-04T21:17:42.017Z,26.20
2018-03-04T21:27:43.703Z,28.57
2018-03-04T21:37:45.215Z,26.33
2018-03-04T21:47:46.790Z,26.20
2018-03-04T21:57:48.252Z,26.90
2018-03-04T22:07:49.808Z,26.40
2018-03-04T22:17:51.495Z,26.47
2018-03-04T22:27:53.112Z,26.63
2018-03-04T22:37:54.663Z,23.47
2018-03-04T22:47:56.241Z,26.30
2018-03-04T22:57:58.641Z,23.77
2018-03-04T23:08:00.174Z,27.60
2018-03-04T23:18:01.747Z,31.73
2018-03-04T23:28:03.272Z,32.47
2018-03-04T23:38:05.609Z,35.60
2018-03-04T23:48:07.178Z,42.10
2018-03-04T23:58:09.468Z,34.80
